createdAt,value
2018-04-15T00:04:54.314Z,2.7
2018-04-15T00:10:45.051Z,2.65
2018-04-15T00:16:35.825Z,2.41
2018-04-15T00:22:26.525Z,2.4
2018-04-15T00:28:17.276Z,2.16
2018-04-15T00:34:08.030Z,2.39
2018-04-15T00:39:58.809Z,2.21
2018-04-15T00:45:49.485Z,2.11
2018-04-15T00:51:40.261Z,1.96
2018-04-15T00:57:30.992Z,1.6
2018-04-15T01:03:21.747Z,1.82
2018-04-15T01:09:12.476Z,1.39
2018-04-15T01:15:03.213Z,1.43
2018-04-15T01:20:53.954Z,1.46
2018-04-15T01:26:44.721Z,1.97
2018-04-15T01:32:35.478Z,1.3
2018-04-15T01:38:26.186Z,1.48
2018-04-15T01:44:16.930Z,1.42
2018-04-15T01:50:07.660Z,1.18
2018-04-15T01:55:58.431Z,1.48
2018-04-15T02:01:49.266Z,1.57
2018-04-15T02:07:39.935Z,1.91
2018-04-15T02:13:30.680Z,1.76
2018-04-15T02:19:21.554Z,1.85
2018-04-15T02:25:12.190Z,1.99
2018-04-15T02:31:02.959Z,1.92
2018-04-15T02:36:53.647Z,1.76
2018-04-15T02:42:44.438Z,1.98
2018-04-15T02:48:35.165Z,2.34
2018-04-15T02:54:25.889Z,2.13
2018-04-15T03:00:16.662Z,2.34
2018-04-15T03:06:07.426Z,2.21
2018-04-15T03:11:58.141Z,1.84
2018-04-15T03:17:48.912Z,1.52
2018-04-15T03:23:39.714Z,2.15
2018-04-15T03:29:30.463Z,2.27
2018-04-15T03:35:21.132Z,2.16
2018-04-15T03:41:11.904Z,2.16
2018-04-15T03:47:02.703Z,2.85
2018-04-15T03:52:53.469Z,2.67
2018-04-15T03:58:44.182Z,2.28
2018-04-15T04:04:34.912Z,2.11
2018-04-15T04:10:25.648Z,2.14
2018-04-15T04:16:16.387Z,2.4
2018-04-15T04:22:07.174Z,1.9
2018-04-15T04:27:57.935Z,2.26
2018-04-15T04:33:48.679Z,1.94
2018-04-15T04:39:39.432Z,1.82
2018-04-15T04:45:30.142Z,2.45
2018-04-15T04:51:20.856Z,2.44
2018-04-15T04:57:11.619Z,2.55
2018-04-15T05:03:02.429Z,2.38
2018-04-15T05:08:53.098Z,2.33
2018-04-15T05:14:43.906Z,2.67
2018-04-15T05:20:34.655Z,2.06
2018-04-15T05:26:25.379Z,2.57
2018-04-15T05:32:16.147Z,2.7
2018-04-15T05:38:06.890Z,2.33
2018-04-15T05:43:57.674Z,2.79
2018-04-15T05:49:48.393Z,3.1
2018-04-15T05:55:39.190Z,3.01
2018-04-15T06:01:29.978Z,2.51
2018-04-15T06:07:20.708Z,2.64
2018-04-15T06:13:11.449Z,2.75
2018-04-15T06:19:02.222Z,2.86
2018-04-15T06:24:52.977Z,2.62
2018-04-15T06:30:43.779Z,2.74
2018-04-15T06:36:34.529Z,2.67
2018-04-15T06:42:25.279Z,2.66
2018-04-15T06:48:16.041Z,3.14
2018-04-15T06:54:06.787Z,2.5
2018-04-15T06:59:57.602Z,3.19
2018-04-15T07:05:48.392Z,2.95
2018-04-15T07:11:39.110Z,2.51
2018-04-15T07:17:29.899Z,3.3
2018-04-15T07:23:20.679Z,3.07
2018-04-15T07:29:11.369Z,2.86
2018-04-15T07:35:02.151Z,3.02
2018-04-15T07:40:52.964Z,2.54
2018-04-15T07:46:43.706Z,2.92
2018-04-15T07:52:34.432Z,2.75
2018-04-15T07:58:25.186Z,3.09
2018-04-15T08:04:15.922Z,3.26
2018-04-15T08:10:06.740Z,2.9
2018-04-15T08:15:57.444Z,3.57
2018-04-15T08:21:48.176Z,4.24
2018-04-15T08:27:38.911Z,3.47
2018-04-15T08:33:29.705Z,3.12
2018-04-15T08:39:20.431Z,3.11
2018-04-15T08:45:11.238Z,2.8
2018-04-15T08:51:02.015Z,2.64
2018-04-15T08:56:52.731Z,3.29
2018-04-15T09:02:43.469Z,3.14
2018-04-15T09:08:34.285Z,3.95
2018-04-15T09:14:25.057Z,3.38
2018-04-15T09:20:15.728Z,3.47
2018-04-15T09:26:06.506Z,3.71
2018-04-15T09:31:57.245Z,4.09
2018-04-15T09:37:48.011Z,5.42
2018-04-15T09:43:38.769Z,6.04
2018-04-15T09:49:29.546Z,7.46
2018-04-15T09:55:20.298Z,6.62
2018-04-15T10:01:39.874Z,5.87
2018-04-15T10:13:20.672Z,6.95
2018-04-15T10:19:11.436Z,6.79
2018-04-15T10:25:02.230Z,7.09
2018-04-15T10:30:52.934Z,6.18
2018-04-15T10:36:43.723Z,6.22
2018-04-15T10:42:34.459Z,4.85
2018-04-15T10:48:25.249Z,4.5
2018-04-15T10:54:16.025Z,4.25
2018-04-15T11:00:06.804Z,4.7
2018-04-15T11:05:57.513Z,4.55
2018-04-15T11:11:48.301Z,4.06
2018-04-15T11:17:39.102Z,4.78
2018-04-15T11:23:29.823Z,4.77
2018-04-15T11:29:20.655Z,5.06
2018-04-15T11:35:11.396Z,5.88
2018-04-15T11:41:02.206Z,7.06
2018-04-15T11:46:52.960Z,6.45
2018-04-15T11:52:43.723Z,6.75
2018-04-15T11:58:34.533Z,6.6
2018-04-15T12:04:25.317Z,6.11
2018-04-15T12:10:16.153Z,6.91
2018-04-15T12:16:06.880Z,6.31
2018-04-15T12:21:57.690Z,6.53
2018-04-15T12:27:48.510Z,5.67
2018-04-15T12:33:39.377Z,5.5
2018-04-15T12:39:30.158Z,5.39
2018-04-15T12:45:20.915Z,5.3
2018-04-15T12:51:11.732Z,5.65
2018-04-15T12:57:02.522Z,5.92
2018-04-15T13:02:53.291Z,4.22
2018-04-15T13:08:44.113Z,4.52
2018-04-15T13:14:34.944Z,5.56
2018-04-15T13:20:25.686Z,6.35
2018-04-15T13:26:16.480Z,6.03
2018-04-15T13:32:07.246Z,5.64
2018-04-15T13:37:58.031Z,6.28
2018-04-15T13:43:48.834Z,5.57
2018-04-15T13:49:39.502Z,4.44
2018-04-15T13:55:30.343Z,5.43
2018-04-15T14:01:21.105Z,5.73
2018-04-15T14:07:11.842Z,6.43
2018-04-15T14:13:02.742Z,6.62
2018-04-15T14:18:53.328Z,6.65
2018-04-15T14:24:44.093Z,6.97
2018-04-15T14:30:34.882Z,7.59
2018-04-15T14:36:25.600Z,8.03
2018-04-15T14:42:16.324Z,6.47
2018-04-15T14:48:07.070Z,5.33
2018-04-15T14:53:57.879Z,6.53
2018-04-15T14:59:48.594Z,6.4
2018-04-15T15:05:39.363Z,6.16
2018-04-15T15:11:30.083Z,8.02
2018-04-15T15:17:20.821Z,8.86
2018-04-15T15:23:11.592Z,9.6
2018-04-15T15:29:02.353Z,9.7
2018-04-15T15:34:53.080Z,8.64
2018-04-15T15:40:43.856Z,9.15
2018-04-15T15:46:34.635Z,8.43
2018-04-15T15:52:25.359Z,8.06
2018-04-15T15:58:16.108Z,7.7
2018-04-15T16:04:06.935Z,8.31
2018-04-15T16:09:57.661Z,4.99
2018-04-15T16:15:48.454Z,6.19
2018-04-15T16:21:39.285Z,5.16
2018-04-15T16:27:29.992Z,5.25
2018-04-15T16:33:20.801Z,4.29
2018-04-15T16:39:11.523Z,3.98
2018-04-15T16:45:02.342Z,4.52
2018-04-15T16:50:53.046Z,4.4
2018-04-15T16:56:43.872Z,4.69
2018-04-15T17:02:34.599Z,5.04
2018-04-15T17:08:25.481Z,4.89
2018-04-15T17:14:16.124Z,4.89
2018-04-15T17:20:06.896Z,4.98
2018-04-15T17:25:57.771Z,5
2018-04-15T17:31:48.428Z,5.25
2018-04-15T17:37:39.171Z,5.08
2018-04-15T17:43:29.924Z,5.72
2018-04-15T17:49:20.715Z,5.44
2018-04-15T17:55:11.513Z,4.82
2018-04-15T18:01:02.209Z,5.54
2018-04-15T18:06:52.959Z,5.49
2018-04-15T18:12:43.702Z,6.31
2018-04-15T18:18:34.431Z,5.59
2018-04-15T18:24:25.279Z,5.6
2018-04-15T18:30:15.961Z,5.33
2018-04-15T18:36:06.728Z,4.22
2018-04-15T18:41:57.507Z,4.75
2018-04-15T18:47:48.182Z,4.37
2018-04-15T18:53:38.968Z,4.27
2018-04-15T18:59:29.726Z,4.19
2018-04-15T19:05:20.486Z,4.28
2018-04-15T19:11:11.172Z,3.72
2018-04-15T19:17:01.952Z,3.65
2018-04-15T19:22:52.687Z,4.4
2018-04-15T19:28:43.396Z,5.03
2018-04-15T19:34:34.199Z,4.51
2018-04-15T19:40:24.939Z,3.74
2018-04-15T19:46:15.675Z,4.21
2018-04-15T19:52:06.403Z,3.56
2018-04-15T19:57:57.128Z,3.76
2018-04-15T20:03:47.911Z,3.53
2018-04-15T20:09:38.597Z,3.82
2018-04-15T20:15:29.299Z,4.17
2018-04-15T20:21:20.034Z,4.18
2018-04-15T20:27:10.770Z,5.01
2018-04-15T20:33:01.496Z,4.41
2018-04-15T20:38:52.348Z,4.5
2018-04-15T20:44:42.964Z,4.09
2018-04-15T20:50:33.670Z,4.97
2018-04-15T20:56:24.467Z,5.03
2018-04-15T21:02:15.195Z,4.21
2018-04-15T21:08:05.920Z,4.69
2018-04-15T21:13:56.632Z,4.16
2018-04-15T21:19:47.351Z,4.44
2018-04-15T21:25:38.085Z,4.24
2018-04-15T21:31:28.819Z,4.51
2018-04-15T21:37:19.537Z,5.36
2018-04-15T21:43:10.285Z,5.75
2018-04-15T21:49:01.085Z,5.37
2018-04-15T21:54:51.734Z,5.04
2018-04-15T22:00:42.469Z,5.67
2018-04-15T22:06:33.155Z,5.09
2018-04-15T22:12:23.862Z,5.51
2018-04-15T22:18:14.554Z,5.18
2018-04-15T22:24:05.323Z,5.08
2018-04-15T22:29:55.987Z,4.69
2018-04-15T22:35:46.629Z,5.49
2018-04-15T22:41:37.380Z,5.1
2018-04-15T22:47:28.051Z,4.71
2018-04-15T22:53:18.756Z,5.12
2018-04-15T22:59:09.442Z,4.81
2018-04-15T23:05:00.149Z,4.89
2018-04-15T23:10:50.814Z,5.31
2018-04-15T23:16:41.525Z,4.48
2018-04-15T23:22:32.199Z,4.97
2018-04-15T23:28:22.905Z,5.02
2018-04-15T23:34:13.641Z,5.1
2018-04-15T23:40:04.314Z,4.74
2018-04-15T23:45:55.004Z,5.76
2018-04-15T23:51:45.713Z,6.18
2018-04-15T23:57:36.356Z,4.8
